createdAt,value
2019-03-22T00:01:33.671Z,13.30
2019-03-22T00:06:33.640Z,10.90
2019-03-22T00:11:33.654Z,13.40
2019-03-22T00:16:33.681Z,14.80
2019-03-22T00:21:33.680Z,12.40
2019-03-22T00:26:33.669Z,14.20
2019-03-22T00:31:33.671Z,13.80
2019-03-22T00:36:33.663Z,11.60
2019-03-22T00:41:33.656Z,17.20
2019-03-22T00:46:33.671Z,15.20
2019-03-22T00:51:33.645Z,13.90
2019-03-22T00:56:33.666Z,14.20
2019-03-22T01:01:33.672Z,14.70
2019-03-22T01:06:33.641Z,13.60
2019-03-22T01:11:33.653Z,15.80
2019-03-22T01:16:33.669Z,13.00
2019-03-22T01:21:33.647Z,14.10
2019-03-22T01:26:33.634Z,13.90
2019-03-22T01:31:33.672Z,11.60
2019-03-22T01:36:33.641Z,11.90
2019-03-22T01:41:33.633Z,13.90
2019-03-22T01:46:33.667Z,12.00
2019-03-22T01:51:33.611Z,14.50
2019-03-22T01:56:33.644Z,13.70
2019-03-22T02:01:33.659Z,14.30
2019-03-22T02:06:33.615Z,13.80
2019-03-22T02:11:33.663Z,13.10
2019-03-22T02:16:33.659Z,16.90
2019-03-22T02:21:33.625Z,16.50
2019-03-22T02:26:33.664Z,12.10
2019-03-22T02:31:33.656Z,12.40
2019-03-22T02:36:33.619Z,14.30
2019-03-22T02:41:33.639Z,14.10
2019-03-22T02:46:33.637Z,20.90
2019-03-22T02:51:33.611Z,14.30
2019-03-22T02:56:33.635Z,11.50
2019-03-22T03:01:33.642Z,18.00
2019-03-22T03:06:33.694Z,17.70
2019-03-22T03:11:33.614Z,14.20
2019-03-22T03:16:33.640Z,13.70
2019-03-22T03:21:33.625Z,14.90
2019-03-22T03:26:33.644Z,15.90
2019-03-22T03:31:33.577Z,11.40
2019-03-22T03:36:35.047Z,15.80
2019-03-22T03:41:33.611Z,17.30
2019-03-22T03:46:33.635Z,12.50
2019-03-22T03:51:33.615Z,17.70
2019-03-22T03:56:33.618Z,15.00
2019-03-22T04:01:33.633Z,14.30
2019-03-22T04:06:33.589Z,16.30
2019-03-22T04:11:33.597Z,13.90
2019-03-22T04:16:33.582Z,11.90
2019-03-22T04:21:33.583Z,15.90
2019-03-22T04:26:33.608Z,12.80
2019-03-22T04:31:33.628Z,13.50
2019-03-22T04:36:33.596Z,14.70
2019-03-22T04:41:33.623Z,13.20
2019-03-22T04:46:33.608Z,17.00
2019-03-22T04:51:33.580Z,23.50
2019-03-22T04:56:33.610Z,23.30
2019-03-22T05:01:33.615Z,21.30
2019-03-22T05:06:33.577Z,20.30
2019-03-22T05:11:33.597Z,17.90
2019-03-22T05:16:33.605Z,20.60
2019-03-22T05:21:33.578Z,17.50
2019-03-22T05:26:33.574Z,16.30
2019-03-22T05:31:33.594Z,16.20
2019-03-22T05:36:33.578Z,14.10
2019-03-22T05:41:33.566Z,14.80
2019-03-22T05:46:33.593Z,20.20
2019-03-22T05:51:33.566Z,15.90
2019-03-22T05:56:33.576Z,13.90
2019-03-22T06:01:33.586Z,14.80
2019-03-22T06:06:33.576Z,16.70
2019-03-22T06:11:33.560Z,14.40
2019-03-22T06:16:33.572Z,12.70
2019-03-22T06:21:33.551Z,15.60
2019-03-22T06:26:33.580Z,13.90
2019-03-22T06:31:33.601Z,15.60
2019-03-22T06:36:33.576Z,16.80
2019-03-22T06:41:33.572Z,16.20
2019-03-22T06:46:33.587Z,14.80
2019-03-22T06:51:33.558Z,15.90
2019-03-22T06:56:33.562Z,14.40
2019-03-22T07:01:33.579Z,14.20
2019-03-22T07:06:33.567Z,14.20
2019-03-22T07:11:33.573Z,12.90
2019-03-22T07:16:33.581Z,13.80
2019-03-22T07:21:33.542Z,11.60
2019-03-22T07:26:33.560Z,11.10
2019-03-22T07:31:35.749Z,12.70
2019-03-22T07:36:33.539Z,11.10
2019-03-22T07:41:33.548Z,11.40
2019-03-22T07:46:33.555Z,9.70
2019-03-22T07:51:33.539Z,20.30
2019-03-22T07:56:33.558Z,13.20
2019-03-22T08:01:33.553Z,11.50
2019-03-22T08:06:33.566Z,13.40
2019-03-22T08:11:33.560Z,13.40
2019-03-22T08:16:33.561Z,12.80
2019-03-22T08:21:33.555Z,24.40
2019-03-22T08:26:33.554Z,9.40
2019-03-22T08:31:33.529Z,12.80
2019-03-22T08:36:33.549Z,11.60
2019-03-22T08:41:33.572Z,10.00
2019-03-22T08:46:33.537Z,9.80
2019-03-22T08:51:33.541Z,9.20
2019-03-22T08:56:35.900Z,8.50
2019-03-22T09:01:33.538Z,8.20
2019-03-22T09:06:33.516Z,7.90
2019-03-22T09:11:33.540Z,7.30
2019-03-22T09:16:33.545Z,8.40
2019-03-22T09:21:33.536Z,7.50
2019-03-22T09:26:33.586Z,8.00
2019-03-22T09:31:33.552Z,7.60
2019-03-22T09:36:33.491Z,7.70
2019-03-22T09:41:33.604Z,7.10
2019-03-22T09:46:33.566Z,6.80
2019-03-22T09:51:33.561Z,6.80
2019-03-22T09:56:46.047Z,6.70
2019-03-22T10:01:33.545Z,7.00
2019-03-22T10:06:33.626Z,6.70
2019-03-22T10:11:33.550Z,6.00
2019-03-22T10:16:33.572Z,5.20
2019-03-22T10:21:33.533Z,5.50
2019-03-22T10:26:33.627Z,5.70
2019-03-22T10:31:37.476Z,6.10
2019-03-22T10:36:33.598Z,5.90
2019-03-22T10:41:33.598Z,6.00
2019-03-22T10:46:33.605Z,6.10
2019-03-22T10:51:33.610Z,6.50
2019-03-22T10:56:33.562Z,7.20
2019-03-22T11:01:46.565Z,7.90
2019-03-22T11:06:33.574Z,7.70
2019-03-22T11:11:33.578Z,8.80
2019-03-22T11:16:33.560Z,8.10
2019-03-22T11:21:33.555Z,8.60
2019-03-22T11:26:33.609Z,8.70
2019-03-22T11:31:39.894Z,7.80
2019-03-22T11:36:33.566Z,7.70
2019-03-22T11:41:33.549Z,7.80
2019-03-22T11:46:33.567Z,8.60
2019-03-22T11:51:33.565Z,8.10
2019-03-22T11:56:33.625Z,6.80
2019-03-22T12:01:33.581Z,7.00
2019-03-22T12:06:33.569Z,6.20
2019-03-22T12:11:33.614Z,7.50
2019-03-22T12:16:33.601Z,7.20
2019-03-22T12:21:33.576Z,6.80
2019-03-22T12:26:33.582Z,6.50
2019-03-22T12:31:33.585Z,7.40
2019-03-22T12:36:33.553Z,7.40
2019-03-22T12:41:33.607Z,8.00
2019-03-22T12:46:33.586Z,7.40
2019-03-22T12:51:33.579Z,7.80
2019-03-22T12:56:33.589Z,7.20
2019-03-22T13:01:33.608Z,8.10
2019-03-22T13:06:33.573Z,7.50
2019-03-22T13:11:33.592Z,6.70
2019-03-22T13:16:33.608Z,7.60
2019-03-22T13:21:33.594Z,6.80
2019-03-22T13:26:33.615Z,6.00
2019-03-22T13:31:33.612Z,6.30
2019-03-22T13:36:33.567Z,5.10
2019-03-22T13:41:33.586Z,6.30
2019-03-22T13:46:40.197Z,5.60
2019-03-22T13:51:33.582Z,5.50
2019-03-22T13:56:33.638Z,5.60
2019-03-22T14:01:33.610Z,4.60
2019-03-22T14:06:33.572Z,5.30
2019-03-22T14:11:33.644Z,4.70
2019-03-22T14:16:33.595Z,5.50
2019-03-22T14:21:33.626Z,5.30
2019-03-22T14:26:33.649Z,4.70
2019-03-22T14:31:33.649Z,4.70
2019-03-22T14:36:33.613Z,5.00
2019-03-22T14:41:33.617Z,4.80
2019-03-22T14:46:33.612Z,5.00
2019-03-22T14:51:35.009Z,5.10
2019-03-22T14:56:33.627Z,5.10
2019-03-22T15:01:33.652Z,5.40
2019-03-22T15:06:33.621Z,5.90
2019-03-22T15:11:33.636Z,6.60
2019-03-22T15:16:33.648Z,5.90
2019-03-22T15:21:33.597Z,8.20
2019-03-22T15:26:33.664Z,6.80
2019-03-22T15:31:33.648Z,6.70
2019-03-22T15:36:33.635Z,5.70
2019-03-22T15:41:33.662Z,9.20
2019-03-22T15:46:33.669Z,12.60
2019-03-22T15:51:33.661Z,8.10
2019-03-22T15:56:33.658Z,6.00
2019-03-22T16:01:33.667Z,6.60
2019-03-22T16:06:33.642Z,6.90
2019-03-22T16:11:33.649Z,7.50
2019-03-22T16:16:33.671Z,6.50
2019-03-22T16:21:33.667Z,5.90
2019-03-22T16:26:33.702Z,5.90
2019-03-22T16:31:33.656Z,4.80
2019-03-22T16:36:33.648Z,5.00
2019-03-22T16:41:33.687Z,5.60
2019-03-22T16:46:33.862Z,5.10
2019-03-22T16:51:33.630Z,5.90
2019-03-22T16:56:33.672Z,6.60
2019-03-22T17:01:33.677Z,5.90
2019-03-22T17:06:33.655Z,6.10
2019-03-22T17:11:33.664Z,7.80
2019-03-22T17:16:33.703Z,8.30
2019-03-22T17:21:33.663Z,8.50
2019-03-22T17:26:33.665Z,7.40
2019-03-22T17:31:33.670Z,9.60
2019-03-22T17:36:33.677Z,7.80
2019-03-22T17:41:33.648Z,10.00
2019-03-22T17:46:33.679Z,8.30
2019-03-22T17:51:33.669Z,7.00
2019-03-22T17:56:33.676Z,8.00
2019-03-22T18:01:33.675Z,14.90
2019-03-22T18:06:33.641Z,8.20
2019-03-22T18:11:33.668Z,8.60
2019-03-22T18:16:33.665Z,7.50
2019-03-22T18:21:33.662Z,8.40
2019-03-22T18:26:33.693Z,6.70
2019-03-22T18:31:33.677Z,9.90
2019-03-22T18:36:33.653Z,7.60
2019-03-22T18:41:33.683Z,6.80
2019-03-22T18:46:33.665Z,7.40
2019-03-22T18:51:33.666Z,14.20
2019-03-22T18:56:33.675Z,9.80
2019-03-22T19:01:33.655Z,8.90
2019-03-22T19:06:33.668Z,8.10
2019-03-22T19:11:33.681Z,9.80
2019-03-22T19:16:33.671Z,9.10
2019-03-22T19:21:33.653Z,8.80
2019-03-22T19:26:33.662Z,12.60
2019-03-22T19:31:33.655Z,12.70
2019-03-22T19:36:33.658Z,12.90
2019-03-22T19:41:33.676Z,13.10
2019-03-22T19:46:33.645Z,12.20
2019-03-22T19:51:33.674Z,12.80
2019-03-22T19:56:33.702Z,14.40
2019-03-22T20:01:33.679Z,13.10
2019-03-22T20:06:33.674Z,12.80
2019-03-22T20:11:33.707Z,15.80
2019-03-22T20:16:33.679Z,15.20
2019-03-22T20:21:33.667Z,37.80
2019-03-22T20:26:33.668Z,21.50
2019-03-22T20:31:33.685Z,15.90
2019-03-22T20:36:33.662Z,17.90
2019-03-22T20:41:33.668Z,18.20
2019-03-22T20:46:33.687Z,13.80
2019-03-22T20:51:33.666Z,16.80
2019-03-22T20:56:33.676Z,13.60
2019-03-22T21:01:33.657Z,14.50
2019-03-22T21:06:33.630Z,13.50
2019-03-22T21:11:33.668Z,15.30
2019-03-22T21:16:33.663Z,13.50
2019-03-22T21:21:36.553Z,13.30
2019-03-22T21:26:33.685Z,14.00
2019-03-22T21:31:33.681Z,13.90
2019-03-22T21:36:33.663Z,12.10
2019-03-22T21:41:33.666Z,11.10
2019-03-22T21:46:33.638Z,14.80
2019-03-22T21:51:33.646Z,13.50
2019-03-22T21:56:33.661Z,15.50
2019-03-22T22:01:33.661Z,12.30
2019-03-22T22:06:33.633Z,12.80
2019-03-22T22:11:33.677Z,14.30
2019-03-22T22:16:33.700Z,13.30
2019-03-22T22:21:33.729Z,12.80
2019-03-22T22:26:33.651Z,15.30
2019-03-22T22:31:33.681Z,14.80
2019-03-22T22:36:33.663Z,14.20
2019-03-22T22:41:33.674Z,13.40
2019-03-22T22:46:33.622Z,15.50
2019-03-22T22:51:33.643Z,13.40
2019-03-22T22:56:33.642Z,14.00
2019-03-22T23:01:33.660Z,12.90
2019-03-22T23:06:33.659Z,17.60
2019-03-22T23:11:33.666Z,17.50
2019-03-22T23:16:33.660Z,17.70
2019-03-22T23:21:33.640Z,15.60
2019-03-22T23:26:33.677Z,17.80
2019-03-22T23:31:33.656Z,14.20
2019-03-22T23:36:33.641Z,12.90
2019-03-22T23:41:33.663Z,13.40
2019-03-22T23:46:33.673Z,13.30
2019-03-22T23:51:33.643Z,16.40
2019-03-22T23:56:33.672Z,16.50
